sensor_id;sensor_type;location;lat;lon;timestamp;pressure;altitude;pressure_sealevel;temperature;humidity
18504;BME280;9381;54.244;10.074;2022-07-17T00:02:47;101992.75;;;13.23;88.86
18504;BME280;9381;54.244;10.074;2022-07-17T00:07:48;101999.41;;;13.08;89.80
18504;BME280;9381;54.244;10.074;2022-07-17T00:12:49;101992.72;;;13.10;90.33
18504;BME280;9381;54.244;10.074;2022-07-17T00:17:50;101998.63;;;13.20;89.80
18504;BME280;9381;54.244;10.074;2022-07-17T00:22:51;101995.59;;;13.02;91.69
18504;BME280;9381;54.244;10.074;2022-07-17T00:27:52;102002.31;;;13.06;91.64
18504;BME280;9381;54.244;10.074;2022-07-17T00:32:52;102000.63;;;13.05;91.82
18504;BME280;9381;54.244;10.074;2022-07-17T00:37:53;101998.31;;;13.02;91.89
18504;BME280;9381;54.244;10.074;2022-07-17T00:42:53;101998.31;;;13.02;92.07
18504;BME280;9381;54.244;10.074;2022-07-17T00:52:56;101986.44;;;12.76;93.69
18504;BME280;9381;54.244;10.074;2022-07-17T00:57:58;101992.41;;;12.58;96.78
18504;BME280;9381;54.244;10.074;2022-07-17T01:03:00;101996.53;;;12.54;97.68
18504;BME280;9381;54.244;10.074;2022-07-17T01:08:01;101986.34;;;12.56;98.13
18504;BME280;9381;54.244;10.074;2022-07-17T01:13:02;101991.09;;;12.54;98.81
18504;BME280;9381;54.244;10.074;2022-07-17T01:18:08;101992.09;;;12.47;99.61
18504;BME280;9381;54.244;10.074;2022-07-17T01:23:10;101994.38;;;12.43;99.89
18504;BME280;9381;54.244;10.074;2022-07-17T01:28:10;102000.22;;;12.40;99.53
18504;BME280;9381;54.244;10.074;2022-07-17T01:33:11;102000.09;;;12.27;100.00
18504;BME280;9381;54.244;10.074;2022-07-17T01:38:12;101998.50;;;12.33;100.00
18504;BME280;9381;54.244;10.074;2022-07-17T01:43:12;102000.53;;;12.31;100.00
18504;BME280;9381;54.244;10.074;2022-07-17T01:48:25;102004.25;;;12.23;100.00
18504;BME280;9381;54.244;10.074;2022-07-17T01:53:26;102011.34;;;12.24;100.00
18504;BME280;9381;54.244;10.074;2022-07-17T01:58:27;102005.91;;;12.24;100.00
18504;BME280;9381;54.244;10.074;2022-07-17T02:03:27;102010.44;;;12.17;100.00
18504;BME280;9381;54.244;10.074;2022-07-17T02:08:27;102020.94;;;12.20;100.00
18504;BME280;9381;54.244;10.074;2022-07-17T02:13:27;102015.94;;;12.24;100.00
18504;BME280;9381;54.244;10.074;2022-07-17T02:18:28;102025.91;;;12.17;100.00
18504;BME280;9381;54.244;10.074;2022-07-17T02:23:28;102031.31;;;12.17;100.00
18504;BME280;9381;54.244;10.074;2022-07-17T02:28:28;102031.38;;;12.23;100.00
18504;BME280;9381;54.244;10.074;2022-07-17T02:33:29;102032.72;;;12.34;100.00
18504;BME280;9381;54.244;10.074;2022-07-17T02:38:29;102033.09;;;12.31;100.00
18504;BME280;9381;54.244;10.074;2022-07-17T02:43:29;102039.50;;;12.23;100.00
18504;BME280;9381;54.244;10.074;2022-07-17T02:48:30;102039.09;;;12.26;100.00
18504;BME280;9381;54.244;10.074;2022-07-17T02:53:30;102049.28;;;12.18;100.00
18504;BME280;9381;54.244;10.074;2022-07-17T02:58:30;102060.06;;;12.11;100.00
18504;BME280;9381;54.244;10.074;2022-07-17T03:03:30;102052.63;;;12.20;100.00
18504;BME280;9381;54.244;10.074;2022-07-17T03:08:31;102050.03;;;12.12;100.00
18504;BME280;9381;54.244;10.074;2022-07-17T03:13:31;102048.31;;;12.04;100.00
18504;BME280;9381;54.244;10.074;2022-07-17T03:18:31;102031.28;;;12.10;100.00
18504;BME280;9381;54.244;10.074;2022-07-17T03:23:32;102032.16;;;12.17;100.00
18504;BME280;9381;54.244;10.074;2022-07-17T03:28:32;102025.91;;;12.17;100.00
18504;BME280;9381;54.244;10.074;2022-07-17T03:33:32;102037.53;;;12.11;100.00
18504;BME280;9381;54.244;10.074;2022-07-17T03:38:33;102037.88;;;12.01;100.00
18504;BME280;9381;54.244;10.074;2022-07-17T03:43:34;102040.00;;;12.06;100.00
18504;BME280;9381;54.244;10.074;2022-07-17T03:48:34;102048.81;;;12.14;100.00
18504;BME280;9381;54.244;10.074;2022-07-17T03:53:35;102045.06;;;12.15;100.00
18504;BME280;9381;54.244;10.074;2022-07-17T03:58:35;102048.38;;;12.11;100.00
18504;BME280;9381;54.244;10.074;2022-07-17T04:03:35;102050.41;;;12.30;100.00
18504;BME280;9381;54.244;10.074;2022-07-17T04:08:36;102049.47;;;12.37;100.00
18504;BME280;9381;54.244;10.074;2022-07-17T04:13:37;102046.19;;;12.48;100.00
18504;BME280;9381;54.244;10.074;2022-07-17T04:18:37;102042.03;;;12.52;100.00
18504;BME280;9381;54.244;10.074;2022-07-17T04:23:37;102046.28;;;12.61;100.00
18504;BME280;9381;54.244;10.074;2022-07-17T04:28:39;102052.28;;;12.84;100.00
18504;BME280;9381;54.244;10.074;2022-07-17T04:33:39;102047.22;;;12.75;100.00
18504;BME280;9381;54.244;10.074;2022-07-17T04:38:39;102027.16;;;12.76;100.00
18504;BME280;9381;54.244;10.074;2022-07-17T04:43:40;102034.69;;;12.74;100.00
18504;BME280;9381;54.244;10.074;2022-07-17T04:48:40;102038.19;;;12.95;100.00
18504;BME280;9381;54.244;10.074;2022-07-17T04:53:40;102050.38;;;13.06;100.00
18504;BME280;9381;54.244;10.074;2022-07-17T04:58:41;102058.22;;;13.28;100.00
18504;BME280;9381;54.244;10.074;2022-07-17T05:03:41;102069.09;;;13.28;100.00
18504;BME280;9381;54.244;10.074;2022-07-17T05:08:41;102071.06;;;13.47;100.00
18504;BME280;9381;54.244;10.074;2022-07-17T05:13:42;102073.63;;;13.62;100.00
18504;BME280;9381;54.244;10.074;2022-07-17T05:18:42;102074.25;;;13.70;100.00
18504;BME280;9381;54.244;10.074;2022-07-17T05:23:42;102071.53;;;13.70;100.00
18504;BME280;9381;54.244;10.074;2022-07-17T05:28:42;102070.13;;;13.81;100.00
18504;BME280;9381;54.244;10.074;2022-07-17T05:33:43;102069.50;;;13.98;100.00
18504;BME280;9381;54.244;10.074;2022-07-17T05:38:43;102072.84;;;14.00;100.00
18504;BME280;9381;54.244;10.074;2022-07-17T05:43:43;102072.03;;;14.13;100.00
18504;BME280;9381;54.244;10.074;2022-07-17T05:48:44;102082.34;;;14.17;100.00
18504;BME280;9381;54.244;10.074;2022-07-17T05:53:44;102070.00;;;14.28;100.00
18504;BME280;9381;54.244;10.074;2022-07-17T05:58:44;102069.81;;;14.42;100.00
18504;BME280;9381;54.244;10.074;2022-07-17T06:03:45;102072.94;;;14.52;99.62
18504;BME280;9381;54.244;10.074;2022-07-17T06:08:45;102074.81;;;14.65;100.00
18504;BME280;9381;54.244;10.074;2022-07-17T06:13:46;102078.16;;;14.67;99.49
18504;BME280;9381;54.244;10.074;2022-07-17T06:18:46;102079.22;;;14.85;97.99
18504;BME280;9381;54.244;10.074;2022-07-17T06:23:47;102072.66;;;14.99;97.50
18504;BME280;9381;54.244;10.074;2022-07-17T06:28:47;102083.72;;;15.23;96.79
18504;BME280;9381;54.244;10.074;2022-07-17T06:33:47;102093.09;;;15.47;96.77
18504;BME280;9381;54.244;10.074;2022-07-17T06:38:48;102095.72;;;15.73;93.95
18504;BME280;9381;54.244;10.074;2022-07-17T06:43:48;102090.81;;;16.19;90.18
18504;BME280;9381;54.244;10.074;2022-07-17T06:48:49;102095.72;;;16.41;87.79
18504;BME280;9381;54.244;10.074;2022-07-17T06:53:51;102104.16;;;16.40;85.77
18504;BME280;9381;54.244;10.074;2022-07-17T06:58:52;102104.22;;;16.58;86.60
18504;BME280;9381;54.244;10.074;2022-07-17T07:03:52;102102.59;;;16.75;86.23
18504;BME280;9381;54.244;10.074;2022-07-17T07:08:52;102095.72;;;16.90;85.67
18504;BME280;9381;54.244;10.074;2022-07-17T07:13:53;102097.34;;;17.16;84.39
18504;BME280;9381;54.244;10.074;2022-07-17T07:18:53;102108.50;;;17.14;83.05
18504;BME280;9381;54.244;10.074;2022-07-17T07:23:54;102110.88;;;17.29;81.20
18504;BME280;9381;54.244;10.074;2022-07-17T07:28:55;102119.97;;;17.47;80.49
18504;BME280;9381;54.244;10.074;2022-07-17T07:33:56;102117.31;;;17.59;80.12
18504;BME280;9381;54.244;10.074;2022-07-17T07:38:56;102112.41;;;17.79;79.31
18504;BME280;9381;54.244;10.074;2022-07-17T07:43:57;102129.56;;;18.03;79.31
18504;BME280;9381;54.244;10.074;2022-07-17T07:48:57;102129.03;;;18.24;77.83
18504;BME280;9381;54.244;10.074;2022-07-17T07:53:57;102132.22;;;18.39;76.15
18504;BME280;9381;54.244;10.074;2022-07-17T07:58:58;102137.38;;;18.59;74.58
18504;BME280;9381;54.244;10.074;2022-07-17T08:03:58;102139.22;;;18.76;74.53
18504;BME280;9381;54.244;10.074;2022-07-17T08:08:59;102150.19;;;18.76;72.35
18504;BME280;9381;54.244;10.074;2022-07-17T08:13:59;102149.44;;;18.92;72.28
18504;BME280;9381;54.244;10.074;2022-07-17T08:19:00;102150.78;;;19.01;72.72
18504;BME280;9381;54.244;10.074;2022-07-17T08:24:00;102149.47;;;19.38;73.22
18504;BME280;9381;54.244;10.074;2022-07-17T08:29:00;102166.88;;;19.55;70.65
18504;BME280;9381;54.244;10.074;2022-07-17T08:34:01;102157.34;;;19.46;70.55
18504;BME280;9381;54.244;10.074;2022-07-17T08:39:02;102159.94;;;19.76;68.53
18504;BME280;9381;54.244;10.074;2022-07-17T08:44:06;102163.03;;;19.79;67.83
18504;BME280;9381;54.244;10.074;2022-07-17T08:49:07;102154.63;;;19.97;66.92
18504;BME280;9381;54.244;10.074;2022-07-17T08:54:08;102171.13;;;19.86;65.73
18504;BME280;9381;54.244;10.074;2022-07-17T08:59:08;102169.66;;;20.06;66.00
18504;BME280;9381;54.244;10.074;2022-07-17T09:04:08;102161.63;;;20.16;66.69
18504;BME280;9381;54.244;10.074;2022-07-17T09:09:11;102165.16;;;20.28;64.99
18504;BME280;9381;54.244;10.074;2022-07-17T09:14:13;102161.03;;;20.14;64.93
18504;BME280;9381;54.244;10.074;2022-07-17T09:19:30;102150.63;;;20.44;64.19
18504;BME280;9381;54.244;10.074;2022-07-17T09:24:47;102165.28;;;20.66;61.37
18504;BME280;9381;54.244;10.074;2022-07-17T09:30:03;102165.44;;;21.04;63.72
18504;BME280;9381;54.244;10.074;2022-07-17T09:35:06;102171.38;;;20.96;64.26
18504;BME280;9381;54.244;10.074;2022-07-17T09:40:12;102164.00;;;21.18;62.44
18504;BME280;9381;54.244;10.074;2022-07-17T09:45:33;102163.63;;;21.31;59.92
18504;BME280;9381;54.244;10.074;2022-07-17T09:50:34;102150.84;;;22.01;60.74
18504;BME280;9381;54.244;10.074;2022-07-17T09:55:37;102162.22;;;22.31;58.59
18504;BME280;9381;54.244;10.074;2022-07-17T10:00:38;102150.22;;;23.00;58.39
18504;BME280;9381;54.244;10.074;2022-07-17T10:05:39;102156.75;;;22.89;54.80
18504;BME280;9381;54.244;10.074;2022-07-17T10:10:39;102145.53;;;22.69;54.23
18504;BME280;9381;54.244;10.074;2022-07-17T10:15:40;102154.00;;;22.94;55.00
18504;BME280;9381;54.244;10.074;2022-07-17T10:20:41;102155.50;;;22.75;56.71
18504;BME280;9381;54.244;10.074;2022-07-17T10:25:41;102151.38;;;23.09;55.51
18504;BME280;9381;54.244;10.074;2022-07-17T10:30:42;102159.03;;;23.80;55.31
18504;BME280;9381;54.244;10.074;2022-07-17T10:35:47;102142.41;;;24.81;50.97
18504;BME280;9381;54.244;10.074;2022-07-17T10:40:59;102149.06;;;24.95;49.35
18504;BME280;9381;54.244;10.074;2022-07-17T10:45:59;102146.31;;;24.65;50.56
18504;BME280;9381;54.244;10.074;2022-07-17T10:51:00;102137.66;;;25.46;47.85
18504;BME280;9381;54.244;10.074;2022-07-17T10:56:05;102128.28;;;26.49;47.02
18504;BME280;9381;54.244;10.074;2022-07-17T11:01:12;102130.25;;;26.49;46.63
18504;BME280;9381;54.244;10.074;2022-07-17T11:16:44;102128.72;;;26.71;45.17
18504;BME280;9381;54.244;10.074;2022-07-17T11:21:46;102120.53;;;27.18;46.82
18504;BME280;9381;54.244;10.074;2022-07-17T11:26:49;102123.13;;;27.33;44.19
18504;BME280;9381;54.244;10.074;2022-07-17T11:31:55;102126.50;;;27.30;46.35
18504;BME280;9381;54.244;10.074;2022-07-17T11:37:01;102124.38;;;27.69;44.15
18504;BME280;9381;54.244;10.074;2022-07-17T11:42:03;102123.09;;;26.81;43.17
18504;BME280;9381;54.244;10.074;2022-07-17T11:47:04;102126.25;;;27.27;45.20
18504;BME280;9381;54.244;10.074;2022-07-17T11:52:10;102129.53;;;27.57;43.28
18504;BME280;9381;54.244;10.074;2022-07-17T11:57:12;102127.38;;;27.54;43.22
18504;BME280;9381;54.244;10.074;2022-07-17T12:02:15;102125.16;;;27.98;42.99
18504;BME280;9381;54.244;10.074;2022-07-17T12:07:17;102125.56;;;27.16;44.45
18504;BME280;9381;54.244;10.074;2022-07-17T12:12:23;102124.63;;;27.73;45.10
18504;BME280;9381;54.244;10.074;2022-07-17T12:17:37;102127.81;;;27.09;43.23
18504;BME280;9381;54.244;10.074;2022-07-17T12:22:48;102129.94;;;25.28;47.74
18504;BME280;9381;54.244;10.074;2022-07-17T12:27:48;102128.69;;;25.79;48.30
18504;BME280;9381;54.244;10.074;2022-07-17T12:32:48;102131.84;;;25.43;48.54
18504;BME280;9381;54.244;10.074;2022-07-17T12:37:49;102124.66;;;26.10;48.50
18504;BME280;9381;54.244;10.074;2022-07-17T12:42:49;102142.38;;;26.14;48.02
18504;BME280;9381;54.244;10.074;2022-07-17T12:47:49;102131.78;;;26.26;48.60
18504;BME280;9381;54.244;10.074;2022-07-17T12:52:50;102125.34;;;26.74;47.74
18504;BME280;9381;54.244;10.074;2022-07-17T12:57:51;102128.63;;;25.94;48.61
18504;BME280;9381;54.244;10.074;2022-07-17T13:02:51;102110.75;;;26.20;49.30
18504;BME280;9381;54.244;10.074;2022-07-17T13:07:51;102124.94;;;25.45;49.55
18504;BME280;9381;54.244;10.074;2022-07-17T13:12:52;102118.66;;;25.98;47.39
18504;BME280;9381;54.244;10.074;2022-07-17T13:17:52;102111.59;;;26.59;48.28
18504;BME280;9381;54.244;10.074;2022-07-17T13:22:53;102120.56;;;24.84;51.36
18504;BME280;9381;54.244;10.074;2022-07-17T13:27:53;102128.84;;;24.94;51.15
18504;BME280;9381;54.244;10.074;2022-07-17T13:32:53;102111.56;;;25.57;48.56
18504;BME280;9381;54.244;10.074;2022-07-17T13:37:54;102119.47;;;24.60;52.95
18504;BME280;9381;54.244;10.074;2022-07-17T13:42:56;102110.56;;;25.23;53.27
18504;BME280;9381;54.244;10.074;2022-07-17T13:47:57;102115.34;;;25.91;49.89
18504;BME280;9381;54.244;10.074;2022-07-17T13:52:57;102120.91;;;25.76;50.14
18504;BME280;9381;54.244;10.074;2022-07-17T13:57:59;102116.28;;;26.20;49.59
18504;BME280;9381;54.244;10.074;2022-07-17T14:03:00;102116.94;;;25.14;49.52
18504;BME280;9381;54.244;10.074;2022-07-17T14:08:00;102113.34;;;25.03;52.42
18504;BME280;9381;54.244;10.074;2022-07-17T14:13:00;102111.44;;;24.84;52.59
18504;BME280;9381;54.244;10.074;2022-07-17T14:18:02;102110.84;;;25.27;51.88
18504;BME280;9381;54.244;10.074;2022-07-17T14:23:03;102107.28;;;25.06;51.49
18504;BME280;9381;54.244;10.074;2022-07-17T14:28:03;102105.56;;;24.40;52.34
18504;BME280;9381;54.244;10.074;2022-07-17T14:33:04;102100.63;;;24.67;52.40
18504;BME280;9381;54.244;10.074;2022-07-17T14:38:04;102093.94;;;25.13;51.37
18504;BME280;9381;54.244;10.074;2022-07-17T14:43:06;102088.44;;;24.53;53.37
18504;BME280;9381;54.244;10.074;2022-07-17T14:48:06;102080.16;;;24.58;54.14
18504;BME280;9381;54.244;10.074;2022-07-17T14:53:07;102086.25;;;24.75;54.12
18504;BME280;9381;54.244;10.074;2022-07-17T14:58:07;102081.56;;;24.56;53.46
18504;BME280;9381;54.244;10.074;2022-07-17T15:03:07;102081.22;;;24.33;54.63
18504;BME280;9381;54.244;10.074;2022-07-17T15:08:08;102083.38;;;24.01;54.86
18504;BME280;9381;54.244;10.074;2022-07-17T15:13:08;102085.66;;;24.29;55.37
18504;BME280;9381;54.244;10.074;2022-07-17T15:18:09;102088.44;;;24.24;55.93
18504;BME280;9381;54.244;10.074;2022-07-17T15:23:10;102089.50;;;24.18;56.16
18504;BME280;9381;54.244;10.074;2022-07-17T15:28:10;102086.72;;;24.03;55.42
18504;BME280;9381;54.244;10.074;2022-07-17T15:33:10;102090.88;;;24.15;56.72
18504;BME280;9381;54.244;10.074;2022-07-17T15:38:11;102104.69;;;23.44;57.15
18504;BME280;9381;54.244;10.074;2022-07-17T15:43:11;102108.09;;;23.66;58.19
18504;BME280;9381;54.244;10.074;2022-07-17T15:48:12;102103.44;;;23.20;57.17
18504;BME280;9381;54.244;10.074;2022-07-17T15:53:12;102098.06;;;23.45;58.43
18504;BME280;9381;54.244;10.074;2022-07-17T15:58:13;102096.91;;;23.36;58.38
18504;BME280;9381;54.244;10.074;2022-07-17T16:03:13;102085.34;;;23.39;59.54
18504;BME280;9381;54.244;10.074;2022-07-17T16:08:14;102091.94;;;23.33;60.25
18504;BME280;9381;54.244;10.074;2022-07-17T16:13:14;102090.22;;;22.85;61.21
18504;BME280;9381;54.244;10.074;2022-07-17T16:18:14;102084.84;;;23.05;62.10
18504;BME280;9381;54.244;10.074;2022-07-17T16:23:15;102072.75;;;23.11;60.71
18504;BME280;9381;54.244;10.074;2022-07-17T16:28:16;102072.94;;;22.63;62.21
18504;BME280;9381;54.244;10.074;2022-07-17T16:33:16;102065.75;;;22.62;62.79
18504;BME280;9381;54.244;10.074;2022-07-17T16:38:17;102065.44;;;22.59;63.50
18504;BME280;9381;54.244;10.074;2022-07-17T16:43:17;102060.28;;;22.67;63.03
18504;BME280;9381;54.244;10.074;2022-07-17T16:48:18;102055.06;;;22.71;62.48
18504;BME280;9381;54.244;10.074;2022-07-17T16:53:18;102054.91;;;22.87;62.99
18504;BME280;9381;54.244;10.074;2022-07-17T16:58:18;102048.63;;;22.97;63.25
18504;BME280;9381;54.244;10.074;2022-07-17T17:03:19;102049.41;;;22.51;63.99
18504;BME280;9381;54.244;10.074;2022-07-17T17:08:19;102052.56;;;22.38;65.50
18504;BME280;9381;54.244;10.074;2022-07-17T17:13:20;102039.06;;;22.10;67.44
18504;BME280;9381;54.244;10.074;2022-07-17T17:18:20;102038.41;;;21.98;68.12
18504;BME280;9381;54.244;10.074;2022-07-17T17:23:21;102030.56;;;22.11;67.36
18504;BME280;9381;54.244;10.074;2022-07-17T17:28:21;102022.91;;;22.18;67.02
18504;BME280;9381;54.244;10.074;2022-07-17T17:33:22;102023.84;;;22.02;67.77
18504;BME280;9381;54.244;10.074;2022-07-17T17:38:22;102023.34;;;21.79;68.82
18504;BME280;9381;54.244;10.074;2022-07-17T17:43:23;102022.44;;;21.52;69.35
18504;BME280;9381;54.244;10.074;2022-07-17T17:48:24;102023.47;;;21.46;69.89
18504;BME280;9381;54.244;10.074;2022-07-17T17:53:25;102026.81;;;21.05;71.24
18504;BME280;9381;54.244;10.074;2022-07-17T17:58:25;102037.47;;;21.02;71.66
18504;BME280;9381;54.244;10.074;2022-07-17T18:03:26;102040.47;;;21.00;72.00
18504;BME280;9381;54.244;10.074;2022-07-17T18:08:26;102042.28;;;21.11;71.76
18504;BME280;9381;54.244;10.074;2022-07-17T18:13:29;102033.56;;;20.81;73.22
18504;BME280;9381;54.244;10.074;2022-07-17T18:18:31;102034.31;;;20.93;72.77
18504;BME280;9381;54.244;10.074;2022-07-17T18:23:31;102031.81;;;20.75;72.96
18504;BME280;9381;54.244;10.074;2022-07-17T18:28:33;102028.44;;;20.68;73.68
18504;BME280;9381;54.244;10.074;2022-07-17T18:33:34;102018.66;;;20.77;73.12
18504;BME280;9381;54.244;10.074;2022-07-17T18:38:35;102018.47;;;20.67;73.76
18504;BME280;9381;54.244;10.074;2022-07-17T18:43:36;102017.69;;;20.50;73.96
18504;BME280;9381;54.244;10.074;2022-07-17T18:48:36;102029.34;;;20.41;74.07
18504;BME280;9381;54.244;10.074;2022-07-17T18:53:37;102040.34;;;20.41;74.75
18504;BME280;9381;54.244;10.074;2022-07-17T18:58:38;102038.34;;;20.36;74.76
18504;BME280;9381;54.244;10.074;2022-07-17T19:03:38;102045.56;;;20.09;75.09
18504;BME280;9381;54.244;10.074;2022-07-17T19:08:40;102033.25;;;20.00;76.28
18504;BME280;9381;54.244;10.074;2022-07-17T19:13:40;102032.50;;;19.88;76.56
18504;BME280;9381;54.244;10.074;2022-07-17T19:18:41;102030.22;;;19.85;76.95
18504;BME280;9381;54.244;10.074;2022-07-17T19:23:42;102037.81;;;19.50;78.60
18504;BME280;9381;54.244;10.074;2022-07-17T19:28:42;102038.38;;;19.52;78.15
18504;BME280;9381;54.244;10.074;2022-07-17T19:33:43;102041.13;;;19.52;78.18
18504;BME280;9381;54.244;10.074;2022-07-17T19:38:43;102036.00;;;19.56;77.96
18504;BME280;9381;54.244;10.074;2022-07-17T19:43:45;102038.91;;;19.38;78.38
18504;BME280;9381;54.244;10.074;2022-07-17T19:48:45;102040.72;;;19.32;78.85
18504;BME280;9381;54.244;10.074;2022-07-17T19:53:46;102055.75;;;19.18;79.41
18504;BME280;9381;54.244;10.074;2022-07-17T19:58:49;102054.19;;;19.11;80.09
18504;BME280;9381;54.244;10.074;2022-07-17T20:03:50;102053.84;;;19.07;80.45
18504;BME280;9381;54.244;10.074;2022-07-17T20:08:50;102054.44;;;18.98;80.39
18504;BME280;9381;54.244;10.074;2022-07-17T20:13:51;102056.94;;;18.99;80.51
18504;BME280;9381;54.244;10.074;2022-07-17T20:18:54;102054.44;;;18.98;80.57
18504;BME280;9381;54.244;10.074;2022-07-17T20:23:55;102052.41;;;18.93;80.71
18504;BME280;9381;54.244;10.074;2022-07-17T20:28:56;102062.56;;;18.81;81.34
18504;BME280;9381;54.244;10.074;2022-07-17T20:33:56;102066.38;;;18.69;82.26
18504;BME280;9381;54.244;10.074;2022-07-17T20:38:56;102058.13;;;18.69;82.28
18504;BME280;9381;54.244;10.074;2022-07-17T20:43:57;102058.50;;;18.61;82.60
18504;BME280;9381;54.244;10.074;2022-07-17T20:48:58;102058.88;;;18.53;83.03
18504;BME280;9381;54.244;10.074;2022-07-17T20:53:58;102077.31;;;18.46;83.74
18504;BME280;9381;54.244;10.074;2022-07-17T20:58:58;102075.03;;;18.31;84.55
18504;BME280;9381;54.244;10.074;2022-07-17T21:03:59;102065.88;;;18.19;85.29
18504;BME280;9381;54.244;10.074;2022-07-17T21:08:59;102046.34;;;18.04;85.67
18504;BME280;9381;54.244;10.074;2022-07-17T21:13:59;102036.53;;;17.86;87.34
18504;BME280;9381;54.244;10.074;2022-07-17T21:19:00;102045.97;;;17.72;88.38
18504;BME280;9381;54.244;10.074;2022-07-17T21:24:00;102038.56;;;17.61;89.22
18504;BME280;9381;54.244;10.074;2022-07-17T21:29:01;102038.50;;;17.49;90.02
18504;BME280;9381;54.244;10.074;2022-07-17T21:34:01;102032.97;;;17.38;90.96
18504;BME280;9381;54.244;10.074;2022-07-17T21:39:02;102040.22;;;17.26;91.53
18504;BME280;9381;54.244;10.074;2022-07-17T21:44:02;102051.47;;;17.18;92.91
18504;BME280;9381;54.244;10.074;2022-07-17T21:49:03;102051.34;;;17.13;93.06
18504;BME280;9381;54.244;10.074;2022-07-17T21:54:03;102045.03;;;17.12;93.88
18504;BME280;9381;54.244;10.074;2022-07-17T21:59:04;102027.63;;;17.07;94.52
18504;BME280;9381;54.244;10.074;2022-07-17T22:04:04;102031.66;;;17.04;95.22
18504;BME280;9381;54.244;10.074;2022-07-17T22:09:05;102038.34;;;17.08;96.30
18504;BME280;9381;54.244;10.074;2022-07-17T22:14:06;102047.97;;;17.11;97.09
18504;BME280;9381;54.244;10.074;2022-07-17T22:19:06;102050.28;;;17.14;97.13
18504;BME280;9381;54.244;10.074;2022-07-17T22:24:07;102039.94;;;17.16;96.62
18504;BME280;9381;54.244;10.074;2022-07-17T22:29:08;102042.97;;;17.08;96.67
18504;BME280;9381;54.244;10.074;2022-07-17T22:34:08;102041.38;;;17.00;96.68
18504;BME280;9381;54.244;10.074;2022-07-17T22:39:08;102033.09;;;16.89;97.20
18504;BME280;9381;54.244;10.074;2022-07-17T22:44:09;102033.84;;;16.78;97.18
18504;BME280;9381;54.244;10.074;2022-07-17T22:49:09;102030.41;;;16.64;96.58
18504;BME280;9381;54.244;10.074;2022-07-17T22:54:09;102027.44;;;16.66;96.99
18504;BME280;9381;54.244;10.074;2022-07-17T22:59:10;102015.97;;;16.57;97.05
18504;BME280;9381;54.244;10.074;2022-07-17T23:04:10;102024.38;;;16.56;97.84
18504;BME280;9381;54.244;10.074;2022-07-17T23:09:11;102024.31;;;16.44;98.03
18504;BME280;9381;54.244;10.074;2022-07-17T23:14:11;102020.72;;;16.44;97.64
18504;BME280;9381;54.244;10.074;2022-07-17T23:19:11;102015.97;;;16.33;98.57
18504;BME280;9381;54.244;10.074;2022-07-17T23:24:12;102020.56;;;16.32;99.08
18504;BME280;9381;54.244;10.074;2022-07-17T23:29:12;102009.44;;;16.34;99.01
18504;BME280;9381;54.244;10.074;2022-07-17T23:34:12;102007.16;;;16.31;98.65
18504;BME280;9381;54.244;10.074;2022-07-17T23:39:12;102001.53;;;16.26;98.73
18504;BME280;9381;54.244;10.074;2022-07-17T23:44:13;102006.38;;;16.24;98.92
18504;BME280;9381;54.244;10.074;2022-07-17T23:49:13;102008.91;;;16.19;98.54
18504;BME280;9381;54.244;10.074;2022-07-17T23:54:14;101994.22;;;16.20;97.94
18504;BME280;9381;54.244;10.074;2022-07-17T23:59:14;102001.19;;;16.16;98.82
